메인 페이지
METAR-TAF:

METAR-TAF

공항 :

워터퍼드, 아일랜드

위도: 52-11-14N, 경도: 7-05-13W, 고도: 36m

현재 날씨관측

예보는 9 시간 3분 전, 23:00시(UTC)에 발표되었습니다.
서남서8kt남남서풍과 풍을 오가는
온도 13°C
습도 94%
기압 1016 hPa
시정 10km 이상
1500m 미만 상공 구름 및 적란운 없음

METAR: EIWF 202300Z 24008KT 200V280 CAVOK 13/12 Q1016

시각: 09:03 (08:03 UTC)

예보

예보는 36분 전, 07:27시(UTC)에 발표되었습니다.
예보 대상 시간: 21일 07시부터 21일 15시까지 (UTC)
서남서13kt
시정 10km 이상
고도 2800ft 상공 구름 많음
확률 30% :
일시적
21일 07시부터 21일 09시까지 (UTC)
고도 1200ft 상공 구름 많음
일시적
21일 09시부터 21일 15시까지 (UTC)
서남서15kt, 순간 최대 풍속 25kt
고도 800ft 상공 구름 많음
약한비
확률 30% :
일시적
21일 12시부터 21일 15시까지 (UTC)
시정: 4000m
고도 400ft 상공 구름 많음
비,

TAF: EIWF 210727Z 2107/2115 24013KT 9999 BKN028 PROB30 TEMPO 2107/2109 BKN012 TEMPO 2109/2115 24015G25KT -RA BKN008 PROB30 TEMPO 2112/2115 4000 RA BKN004

4,000개 이상의 공항 관측 자료 및 예보 (METAR 및 TAF 보고).

지도상에서 검색 가능한 기상관측소가 노란 점과 빨간 점으로 표시되어 있습니다.

기상관측소 명을 보려면 표시 위로 마우스를 이동하세요.

날씨 관측과 예보를 보려면 클릭하세요.

지도 변경 : 확대하려면 엑스 표시가 있는 녹색 버튼, 축소하려면 빼기 표시가 있는 녹색 버튼, 다음 페이지의 지도를 보려면 녹색 화살표를 클릭하세요.


METAR-TAF: